Online since October of 2007


Active alerts


No alerts

Bigbaywx more information Bigbaywx


mount mesnard more information Mount Mesnard


visit our other weather sites:

Template documentation
and downloads

And another site


CBI


nearby metar reports

   
KSAW - Sawyer, Michigan
updated: Sep 23 2019 1:38 am
overcast  
overcast  
   wind: wnw 8.1 mph
wind: wnw 8.1 mph
temperature: 55.4°F
dew point: 51.8°F
humidity: 88%
barometer: 29.77 inHg
clouds: overcast
visibility: 10 mi
cloud details: overcast 1341 m
KSAW 230538Z AUTO 29007KT 10SM OVC044 13/11 A2977 RMK AO2 T01270105
KESC - Escanaba, Michigan
updated: Sep 23 2019 12:56 am
clear  
clear  
   wind: west 5.8 mph
wind: west 5.8 mph
temperature: 55.4°F
dew point: 53.6°F
humidity: 94%
barometer: 29.78 inHg
clouds: clear
visibility: 10 mi
cloud details: clear
KESC 230456Z AUTO 26005KT 10SM CLR 13/12 A2978 RMK AO2 SLP088 T01330122 402170128
KIMT - Iron Mountain, MI
updated: Sep 23 2019 12:54 am
partly cloudy  
partly cloudy  
   wind: west 4.6 mph
wind: west 4.6 mph
temperature: 55.4°F
dew point: 50°F
humidity: 82%
barometer: 29.82 inHg
clouds: partly cloudy
visibility: 10 mi
cloud details: partly cloudy 3658 m
KIMT 230454Z AUTO 27004KT 10SM SCT120 13/10 A2982 RMK AO2 SLP096 T01330100 $
KGRB - Green Bay, WI
updated: Sep 23 2019 12:53 am
rain, overcast  
rain, overcast  
   wind: wnw 17.3 mph<br />Gust to 17.3 mph
wind: wnw 17.3 mph
Gust to 17.3 mph
temperature: 62.6°F
dew point: 57.2°F
humidity: 83%
barometer: 29.85 inHg
clouds: overcast
visibility: 10 mi
cloud details: few clouds 732 m,
few clouds 1524 m,
overcast 2591 m
KGRB 230453Z 29015G26KT 10SM RA FEW024 FEW050 OVC085 17/14 A2985 RMK AO2 PK WND 28029/0439 RAB0358E11B30 SLP107 P0003 T01670139
KDET - Detroit, MI
updated: Sep 23 2019 12:53 am
light rain, partly cloudy  
light rain, partly cloudy  
   wind: sw 17.3 mph<br />Gust to 17.3 mph
wind: sw 17.3 mph
Gust to 17.3 mph
temperature: 75.2°F
dew point: 60.8°F
humidity: 61%
barometer: 29.8 inHg
clouds: partly cloudy
visibility: 10 mi
cloud details: partly cloudy 3658 m
KDET 230453Z 22015G25KT 10SM -RA SCT120 24/16 A2980 RMK AO2 PK WND 22030/0424 RAB16 SLP086 P0000 T02390161 403000228
 

script developed by  Saratoga-weather.org adapted for the template by  Weerstation Leuven

you find our weather info also at:

Weather Underground

midwestern weather network

WeatherlinkIP

Citizen Weather Observer Program (CWOP)

equipment we use:

weather-station
Davis VP2

weather-program
Davis Weatherlink.Com

Davis VP2

Davis Weatherlink.Com